Time;durP1;ratioP1;P1;durP2;ratioP2;P2;SDS_P1;SDS_P2;PMS_P1;PMS_P2;Temp;Humidity;BMP_temperature;BMP_pressure;BME280_temperature;BME280_humidity;BME280_pressure;Samples;Min_cycle;Max_cycle;Signal;HPM_P1;HPM_P2
2022/08/15 00:01:44;;;;;;;6.95;3.85;;;;;;;17.90;76.78;101520.97;10611210;27;20041;-81
2022/08/15 00:06:47;;;;;;;9.18;3.80;;;;;;;17.83;77.31;101515.00;10593482;28;20048;-82
2022/08/15 00:11:53;;;;;;;4.28;2.42;;;;;;;17.73;77.56;101518.00;10573449;28;20058;-82
2022/08/15 00:16:55;;;;;;;5.10;2.28;;;;;;;17.62;78.36;101525.66;10561559;27;20044;-83
2022/08/15 00:22:04;;;;;;;4.22;2.10;;;;;;;17.57;79.23;101520.22;10600909;28;20058;-83
2022/08/15 00:27:08;;;;;;;4.00;2.20;;;;;;;17.51;79.88;101518.66;10611271;28;20040;-85
2022/08/15 00:32:12;;;;;;;3.88;2.03;;;;;;;17.46;80.40;101518.75;10572200;27;20527;-82
2022/08/15 00:37:17;;;;;;;3.45;2.10;;;;;;;17.39;81.17;101518.34;10562230;28;20114;-85
2022/08/15 00:42:23;;;;;;;5.20;1.88;;;;;;;17.37;81.33;101513.09;10587381;27;20036;-83
2022/08/15 00:47:25;;;;;;;3.30;2.00;;;;;;;17.38;81.89;101522.25;10570264;28;20066;-83
2022/08/15 00:52:29;;;;;;;6.45;2.13;;;;;;;17.39;82.08;101524.72;10575942;28;20052;-82
2022/08/15 00:57:36;;;;;;;6.40;1.75;;;;;;;17.38;82.83;101519.47;10573192;28;20043;-81
2022/08/15 01:02:38;;;;;;;2.60;1.60;;;;;;;17.35;83.15;101522.81;10600514;28;20047;-82
2022/08/15 01:07:41;;;;;;;4.47;1.85;;;;;;;17.31;83.25;101513.47;10562871;28;20096;-82
2022/08/15 01:12:43;;;;;;;4.97;2.50;;;;;;;17.21;83.44;101514.50;10608154;28;20059;-80
2022/08/15 01:17:46;;;;;;;4.85;2.10;;;;;;;17.14;83.71;101520.41;10584319;28;20050;-78
2022/08/15 01:23:09;;;;;;;5.18;1.70;;;;;;;17.10;83.70;101527.72;10587072;28;20043;-78
2022/08/15 01:28:25;;;;;;;3.45;1.85;;;;;;;17.08;84.64;101521.66;10576234;28;20501;-78
2022/08/15 01:33:31;;;;;;;1.40;1.15;;;;;;;17.06;84.74;101523.09;10563137;28;20051;-78
2022/08/15 01:38:42;;;;;;;2.58;1.77;;;;;;;17.03;84.89;101518.97;10530598;28;20040;-79
2022/08/15 01:43:56;;;;;;;5.22;2.40;;;;;;;16.98;84.78;101519.03;10589698;28;20052;-78
2022/08/15 01:49:07;;;;;;;2.08;1.23;;;;;;;16.94;84.98;101523.53;10547249;28;20078;-78
2022/08/15 01:54:13;;;;;;;4.10;2.28;;;;;;;16.96;85.32;101526.00;10587731;28;20035;-79
2022/08/15 01:59:20;;;;;;;3.90;1.27;;;;;;;16.98;85.21;101521.81;10574668;28;20044;-78
2022/08/15 02:04:31;;;;;;;1.55;1.40;;;;;;;17.00;85.25;101521.50;10588674;28;20082;-78
2022/08/15 02:09:34;;;;;;;2.03;1.48;;;;;;;17.00;85.41;101527.03;10593959;28;20046;-78
2022/08/15 02:14:41;;;;;;;2.35;2.00;;;;;;;17.01;85.44;101529.53;10591158;28;20044;-78
2022/08/15 02:19:51;;;;;;;2.92;1.80;;;;;;;16.98;85.25;101524.56;10556489;28;20039;-78
2022/08/15 02:24:56;;;;;;;3.53;1.95;;;;;;;16.98;85.65;101524.56;10549833;28;20430;-78
2022/08/15 02:30:00;;;;;;;2.85;1.73;;;;;;;17.02;85.56;101528.41;10588056;28;20047;-78
2022/08/15 02:35:03;;;;;;;4.53;1.85;;;;;;;17.08;85.40;101521.66;10597766;28;20047;-78
2022/08/15 02:40:09;;;;;;;2.08;1.60;;;;;;;17.15;85.26;101522.06;10597961;28;20468;-78
2022/08/15 02:45:13;;;;;;;1.83;1.30;;;;;;;17.17;85.15;101521.75;10565376;28;20036;-79
2022/08/15 02:50:16;;;;;;;3.28;2.22;;;;;;;17.16;85.13;101520.13;10581068;28;20444;-79
2022/08/15 02:55:19;;;;;;;4.45;1.60;;;;;;;17.21;85.18;101517.28;10577570;28;20048;-79
2022/08/15 03:00:22;;;;;;;2.95;1.52;;;;;;;17.26;84.78;101513.59;10556202;28;20040;-79
2022/08/15 03:05:29;;;;;;;2.33;1.40;;;;;;;17.43;84.63;101524.91;10575890;28;20058;-79
2022/08/15 03:10:33;;;;;;;1.85;1.50;;;;;;;17.66;84.28;101523.09;10570912;28;20054;-79
2022/08/15 03:15:52;;;;;;;3.95;1.48;;;;;;;17.90;83.49;101522.94;10556424;28;20044;-79
2022/08/15 03:20:57;;;;;;;5.75;1.40;;;;;;;18.13;82.06;101516.31;10563477;28;20051;-79
2022/08/15 03:26:02;;;;;;;1.40;1.00;;;;;;;18.31;80.53;101520.09;10605365;28;20035;-79
2022/08/15 03:31:06;;;;;;;2.67;1.42;;;;;;;18.53;79.21;101517.38;10565149;28;20063;-78
2022/08/15 03:36:10;;;;;;;3.22;1.67;;;;;;;18.80;78.06;101510.94;10556021;28;20519;-79
2022/08/15 03:41:13;;;;;;;2.78;1.70;;;;;;;19.09;76.40;101510.50;10578809;28;20036;-79
2022/08/15 03:46:18;;;;;;;2.97;1.60;;;;;;;19.22;73.92;101509.56;10596844;27;20046;-79
2022/08/15 03:51:23;;;;;;;2.97;1.63;;;;;;;19.39;72.55;101510.81;10590524;27;20039;-79
2022/08/15 03:56:29;;;;;;;3.28;1.60;;;;;;;19.73;71.23;101522.13;10589837;27;20483;-79
2022/08/15 04:01:35;;;;;;;2.00;1.48;;;;;;;19.98;69.77;101506.69;10558624;28;20043;-79
2022/08/15 04:06:40;;;;;;;3.22;1.15;;;;;;;20.33;68.83;101513.13;10592965;28;20070;-79
2022/08/15 04:11:42;;;;;;;1.58;1.17;;;;;;;20.48;68.30;101514.66;10577126;27;20084;-79
2022/08/15 04:16:48;;;;;;;1.48;1.17;;;;;;;20.61;67.01;101513.66;10544276;28;20043;-79
2022/08/15 04:21:51;;;;;;;1.85;0.90;;;;;;;20.97;66.89;101506.91;10609821;28;20036;-79
2022/08/15 04:26:55;;;;;;;7.30;1.90;;;;;;;21.27;66.27;101505.91;10563735;28;20059;-79
2022/08/15 04:31:57;;;;;;;2.03;1.45;;;;;;;21.53;65.26;101513.41;10591134;28;20059;-80
2022/08/15 04:37:01;;;;;;;6.45;2.00;;;;;;;21.88;63.72;101514.91;10578059;28;20074;-80
2022/08/15 04:42:03;;;;;;;5.75;1.90;;;;;;;22.12;62.61;101505.91;10536829;28;20532;-80
2022/08/15 04:47:06;;;;;;;4.05;1.65;;;;;;;22.53;62.41;101495.91;10565779;28;20054;-80
2022/08/15 04:52:16;;;;;;;5.10;1.95;;;;;;;23.13;61.51;101508.56;10594256;28;20043;-80
2022/08/15 04:57:22;;;;;;;2.85;1.67;;;;;;;23.49;59.59;101507.00;10593934;28;20031;-80
2022/08/15 05:02:25;;;;;;;3.95;1.90;;;;;;;24.12;58.05;101501.91;10593616;28;20046;-80
2022/08/15 05:07:28;;;;;;;7.93;2.42;;;;;;;24.57;56.89;101496.13;10593822;28;20035;-80
2022/08/15 05:12:31;;;;;;;4.20;2.28;;;;;;;25.10;56.47;101494.06;10560149;28;20044;-79
2022/08/15 05:17:33;;;;;;;3.45;2.17;;;;;;;25.70;53.09;101501.31;10611795;28;20039;-80
2022/08/15 05:22:36;;;;;;;2.38;2.08;;;;;;;25.88;53.19;101501.78;10593131;28;20070;-81
2022/08/15 05:27:38;;;;;;;2.45;1.60;;;;;;;26.16;52.52;101487.53;10593149;28;20051;-80
2022/08/15 05:32:41;;;;;;;5.95;2.20;;;;;;;26.34;51.40;101496.38;10592893;28;20405;-80
2022/08/15 05:37:44;;;;;;;4.40;2.05;;;;;;;26.66;51.36;101492.31;10593810;28;20044;-80
2022/08/15 05:43:02;;;;;;;2.72;2.00;;;;;;;26.95;49.97;101492.91;10592080;28;20126;-80
2022/08/15 05:48:10;;;;;;;4.20;2.20;;;;;;;27.09;49.52;101492.41;10576209;28;20055;-80
2022/08/15 05:53:40;;;;;;;3.65;2.92;;;;;;;27.49;47.92;101500.38;10593240;28;20040;-80
2022/08/15 05:58:46;;;;;;;8.80;2.60;;;;;;;27.73;47.78;101497.19;10593082;28;20422;-81
2022/08/15 06:04:02;;;;;;;5.68;2.20;;;;;;;27.96;48.18;101502.81;10585341;27;20505;-81
2022/08/15 06:09:48;;;;;;;5.10;2.20;;;;;;;28.24;47.75;101508.06;10584134;28;20062;-81
2022/08/15 06:15:00;;;;;;;6.40;2.05;;;;;;;28.64;47.03;101507.47;10572200;28;20056;-81
2022/08/15 06:20:06;;;;;;;6.40;1.83;;;;;;;29.19;46.14;101501.28;10582371;28;20490;-81
2022/08/15 06:25:18;;;;;;;3.35;2.40;;;;;;;29.66;44.99;101498.50;10546182;28;20040;-82
2022/08/15 06:30:26;;;;;;;2.85;2.45;;;;;;;30.03;44.01;101503.25;10557830;28;20063;-82
2022/08/15 06:35:39;;;;;;;3.83;2.20;;;;;;;29.80;43.70;101502.66;10558171;28;20048;-81
2022/08/15 06:40:44;;;;;;;3.05;2.67;;;;;;;29.75;44.94;101495.34;10581527;28;20053;-81
2022/08/15 06:45:50;;;;;;;3.67;2.42;;;;;;;30.26;44.15;101501.00;10599595;28;20051;-80
2022/08/15 06:50:55;;;;;;;5.13;2.50;;;;;;;30.24;43.76;101505.44;10598009;28;20051;-80
2022/08/15 06:56:02;;;;;;;3.55;2.60;;;;;;;30.08;43.67;101504.94;10580522;28;20059;-80
2022/08/15 07:01:17;;;;;;;4.22;2.70;;;;;;;30.08;43.97;101510.59;10583294;28;20039;-80
2022/08/15 07:06:27;;;;;;;4.82;3.10;;;;;;;30.20;43.93;101505.44;10555671;28;20097;-80
2022/08/15 07:11:37;;;;;;;8.30;2.90;;;;;;;30.58;43.54;101503.19;10576131;28;20042;-80
2022/08/15 07:17:00;;;;;;;3.00;2.70;;;;;;;30.86;43.39;101509.00;10580700;28;20051;-80
2022/08/15 07:22:03;;;;;;;5.13;2.60;;;;;;;31.18;42.77;101503.47;10595955;28;20055;-80
2022/08/15 07:27:12;;;;;;;4.45;2.75;;;;;;;31.27;42.83;101499.44;10597470;28;20047;-80
2022/08/15 07:32:18;;;;;;;4.28;2.75;;;;;;;31.52;41.70;101488.91;10581180;28;20040;-77
2022/08/15 07:37:23;;;;;;;4.25;2.80;;;;;;;31.16;42.61;101499.38;10597843;28;20047;-77
2022/08/15 07:42:27;;;;;;;4.40;2.70;;;;;;;31.13;42.46;101489.66;10597113;28;20053;-76
2022/08/15 07:47:31;;;;;;;3.50;2.80;;;;;;;30.87;42.84;101493.63;10611438;28;20044;-76
2022/08/15 07:52:34;;;;;;;3.30;2.53;;;;;;;30.88;43.11;101506.56;10595801;28;20043;-75
2022/08/15 07:57:41;;;;;;;3.15;2.70;;;;;;;31.13;42.79;101495.31;10594447;28;20039;-75
2022/08/15 08:02:51;;;;;;;3.90;2.67;;;;;;;31.14;42.36;101496.13;10587678;28;20513;-75
2022/08/15 08:07:54;;;;;;;6.57;2.92;;;;;;;31.42;42.02;101495.41;10545653;28;20545;-75
2022/08/15 08:13:19;;;;;;;5.82;3.20;;;;;;;31.42;41.19;101499.06;10578090;28;20062;-78
2022/08/15 08:19:00;;;;;;;4.60;3.33;;;;;;;31.02;41.99;101505.81;10583636;27;20042;-75
2022/08/15 08:24:32;;;;;;;4.05;2.70;;;;;;;30.95;42.58;101494.47;10602186;28;20528;-74
2022/08/15 08:29:55;;;;;;;5.80;3.17;;;;;;;30.67;42.82;101495.16;10566547;28;20134;-74
2022/08/15 08:35:07;;;;;;;5.63;2.97;;;;;;;30.41;43.03;101501.91;10601656;27;20524;-75
2022/08/15 08:46:15;;;;;;;3.70;3.17;;;;;;;30.66;42.64;101498.41;10596105;28;20055;-75
2022/08/15 08:51:51;;;;;;;4.05;3.30;;;;;;;30.52;42.99;101497.09;10593812;28;20040;-76
2022/08/15 08:56:56;;;;;;;3.80;3.30;;;;;;;30.80;43.08;101487.13;10589763;28;20096;-75
2022/08/15 09:02:25;;;;;;;4.85;3.22;;;;;;;31.15;42.63;101492.09;10581392;28;20063;-75
2022/08/15 09:07:31;;;;;;;4.55;3.72;;;;;;;30.94;42.30;101486.38;10554812;28;20048;-75
2022/08/15 09:18:06;;;;;;;5.45;3.40;;;;;;;30.77;43.02;101483.06;10577443;28;20420;-75
2022/08/15 09:23:10;;;;;;;;;;;;;;;30.67;42.71;101478.16;10575542;28;20042;-75
2022/08/15 09:28:25;;;;;;;4.00;3.38;;;;;;;30.21;43.70;101475.91;10605737;28;19923;-75
2022/08/15 09:33:56;;;;;;;3.63;3.33;;;;;;;29.67;44.34;101477.50;10584360;28;20135;-74
2022/08/15 09:39:35;;;;;;;4.18;3.42;;;;;;;29.24;45.32;101470.63;10604193;28;20046;-75
2022/08/15 09:44:40;;;;;;;5.72;3.47;;;;;;;28.79;46.10;101477.34;10597567;28;20160;-75
2022/08/15 09:50:20;;;;;;;4.80;3.20;;;;;;;28.48;46.16;101473.78;10589831;28;20034;-74
2022/08/15 09:55:42;;;;;;;6.53;3.90;;;;;;;28.14;47.68;101457.94;10611239;28;20065;-74
2022/08/15 10:01:09;;;;;;;6.82;4.50;;;;;;;27.91;48.06;101466.44;10591174;28;20036;-77
2022/08/15 10:06:19;;;;;;;11.10;6.25;;;;;;;27.76;49.83;101465.41;10608824;28;20048;-74
2022/08/15 10:11:46;;;;;;;4.63;3.53;;;;;;;27.66;49.03;101466.06;10606894;28;20039;-75
2022/08/15 10:17:04;;;;;;;5.03;3.78;;;;;;;27.60;49.79;101468.38;10560080;28;20044;-76
2022/08/15 10:22:22;;;;;;;4.35;3.95;;;;;;;27.58;49.02;101458.63;10592404;28;20031;-79
2022/08/15 10:27:26;;;;;;;3.88;3.47;;;;;;;27.55;49.73;101454.56;10593555;28;20043;-77
2022/08/15 10:32:31;;;;;;;6.75;4.47;;;;;;;27.52;48.40;101444.06;10589900;28;20442;-77
2022/08/15 10:38:09;;;;;;;6.75;4.43;;;;;;;27.51;48.93;101447.25;10599746;27;20039;-79
2022/08/15 10:43:14;;;;;;;6.25;3.80;;;;;;;27.58;49.11;101448.16;10521536;27;20040;-77
2022/08/15 10:48:38;;;;;;;5.90;4.72;;;;;;;27.55;48.50;101440.47;10587740;27;20054;-76
2022/08/15 10:53:48;;;;;;;4.25;3.72;;;;;;;27.59;49.41;101437.69;10587350;27;20622;-76
2022/08/15 10:59:02;;;;;;;6.03;4.72;;;;;;;27.59;49.19;101437.69;10657264;27;20050;-76
2022/08/15 11:04:08;;;;;;;6.07;4.03;;;;;;;27.56;48.92;101432.81;10637858;27;20039;-77
2022/08/15 11:09:17;;;;;;;5.43;3.87;;;;;;;27.59;49.02;101432.88;10616086;28;20055;-77
2022/08/15 11:14:26;;;;;;;5.53;4.35;;;;;;;27.60;48.88;101430.91;10616374;28;20051;-77
2022/08/15 11:19:33;;;;;;;7.65;4.50;;;;;;;27.79;49.52;101432.84;10598194;28;20047;-77
2022/08/15 11:24:39;;;;;;;;;;;;;;;27.87;48.71;101426.09;10580787;28;20051;-77
2022/08/15 11:29:43;;;;;;;4.73;4.03;;;;;;;28.01;48.34;101426.31;10614165;28;20323;-77
2022/08/15 11:34:46;;;;;;;11.25;5.15;;;;;;;28.01;47.38;101434.78;10614614;28;20059;-77
2022/08/15 11:39:51;;;;;;;5.50;5.00;;;;;;;27.95;46.94;101441.94;10615277;28;20395;-77
2022/08/15 11:45:00;;;;;;;5.55;4.35;;;;;;;27.93;46.97;101431.00;10615204;28;20048;-77
2022/08/15 11:50:11;;;;;;;5.93;4.95;;;;;;;27.99;46.84;101427.88;10595736;28;20040;-77
2022/08/15 11:55:14;;;;;;;5.82;4.60;;;;;;;28.07;47.42;101427.59;10596321;28;20039;-77
2022/08/15 12:00:34;;;;;;;7.47;4.93;;;;;;;28.17;46.85;101428.94;10612933;28;20040;-77
2022/08/15 12:05:38;;;;;;;5.72;4.45;;;;;;;28.31;46.61;101428.38;10597240;28;20046;-77
2022/08/15 12:10:41;;;;;;;8.15;4.90;;;;;;;28.30;46.45;101421.91;10594250;28;20413;-77
2022/08/15 12:15:45;;;;;;;4.97;4.45;;;;;;;28.29;45.92;101414.63;10595415;28;20421;-76
2022/08/15 12:20:59;;;;;;;5.95;4.63;;;;;;;28.20;45.77;101408.44;10595067;28;20040;-76
2022/08/15 12:26:04;;;;;;;3.97;3.55;;;;;;;28.19;45.95;101401.97;10610080;27;20513;-75
2022/08/15 12:31:17;;;;;;;4.53;4.13;;;;;;;28.23;46.34;101396.38;10610562;27;20048;-76
2022/08/15 12:36:20;;;;;;;4.93;4.43;;;;;;;28.18;46.74;101385.41;10612239;28;20039;-76
2022/08/15 12:41:24;;;;;;;5.30;4.75;;;;;;;28.19;45.96;101376.56;10644335;27;20032;-76
2022/08/15 12:46:26;;;;;;;6.43;4.45;;;;;;;28.21;45.46;101374.16;10593115;28;20051;-76
2022/08/15 12:51:28;;;;;;;6.53;4.85;;;;;;;28.33;45.54;101370.31;10593774;28;20413;-75
2022/08/15 12:56:30;;;;;;;6.38;5.25;;;;;;;28.38;45.60;101371.97;10611613;28;20054;-76
2022/08/15 13:01:34;;;;;;;8.05;4.82;;;;;;;28.45;45.87;101377.69;10610590;28;20062;-76
2022/08/15 13:06:52;;;;;;;7.05;4.88;;;;;;;28.60;44.82;101381.50;10573215;27;20039;-76
2022/08/15 13:11:55;;;;;;;5.45;4.82;;;;;;;28.65;44.41;101381.19;10608684;28;20040;-77
2022/08/15 13:16:59;;;;;;;4.47;4.07;;;;;;;28.67;44.25;101370.31;10577531;28;20055;-76
2022/08/15 13:27:22;;;;;;;8.65;4.45;;;;;;;28.71;44.08;101380.44;10576133;28;20383;-76
2022/08/15 13:32:24;;;;;;;5.22;4.65;;;;;;;28.80;45.46;101380.09;10584316;28;20039;-77
2022/08/15 13:37:28;;;;;;;7.57;5.43;;;;;;;28.71;47.85;101373.97;10601308;28;20043;-77
2022/08/15 13:42:30;;;;;;;5.80;5.13;;;;;;;28.60;46.73;101384.34;10576546;28;20051;-78
2022/08/15 13:47:32;;;;;;;7.70;4.75;;;;;;;28.43;49.15;101375.28;10601419;28;20520;-79
2022/08/15 13:52:34;;;;;;;8.45;5.38;;;;;;;28.19;50.16;101370.13;10586884;28;20043;-78
2022/08/15 13:57:36;;;;;;;10.23;7.07;;;;;;;27.96;51.27;101372.22;10568737;28;20039;-77
2022/08/15 14:02:41;;;;;;;7.10;6.35;;;;;;;27.79;53.02;101371.59;10591212;28;20040;-77
2022/08/15 14:07:45;;;;;;;7.00;5.40;;;;;;;27.71;53.50;101367.03;10573229;28;20568;-77
2022/08/15 14:12:47;;;;;;;11.75;5.25;;;;;;;27.66;53.73;101375.81;10602357;28;20055;-77
2022/08/15 14:17:49;;;;;;;7.80;5.72;;;;;;;27.61;54.25;101362.03;10608343;28;20043;-77
2022/08/15 14:22:52;;;;;;;6.22;4.63;;;;;;;27.59;53.76;101364.41;10606362;28;20444;-76
2022/08/15 14:27:55;;;;;;;5.53;4.90;;;;;;;27.54;53.10;101356.28;10614365;28;20035;-76
2022/08/15 14:33:00;;;;;;;7.57;5.57;;;;;;;27.52;53.82;101358.66;10608384;27;20062;-76
2022/08/15 14:38:04;;;;;;;6.55;4.78;;;;;;;27.45;54.22;101355.75;10587137;28;20043;-76
2022/08/15 14:43:07;;;;;;;5.95;5.22;;;;;;;27.39;54.00;101362.88;10599436;28;20036;-76
2022/08/15 14:48:11;;;;;;;5.20;4.70;;;;;;;27.30;54.59;101357.50;10608314;28;20040;-76
2022/08/15 14:53:13;;;;;;;8.70;6.50;;;;;;;27.21;54.85;101354.94;10593807;28;20390;-76
2022/08/15 14:58:16;;;;;;;6.30;5.22;;;;;;;27.11;55.29;101352.78;10608552;27;20054;-76
2022/08/15 15:03:20;;;;;;;6.90;5.88;;;;;;;27.00;55.25;101346.13;10564716;28;20488;-76
2022/08/15 15:08:25;;;;;;;6.30;4.63;;;;;;;26.92;55.30;101361.28;10566993;28;20048;-76
2022/08/15 15:13:27;;;;;;;7.65;5.30;;;;;;;26.86;54.50;101338.22;10591717;28;20040;-76
2022/08/15 15:18:29;;;;;;;6.68;4.65;;;;;;;26.85;54.85;101344.22;10587530;28;20078;-76
2022/08/15 15:23:32;;;;;;;6.35;5.47;;;;;;;26.84;55.54;101340.59;10609164;27;20062;-76
2022/08/15 15:28:35;;;;;;;7.95;5.80;;;;;;;26.84;55.21;101343.41;10595357;28;20047;-76
2022/08/15 15:33:40;;;;;;;8.38;5.22;;;;;;;26.84;55.61;101331.34;10613798;28;20389;-76
2022/08/15 15:38:42;;;;;;;9.70;5.90;;;;;;;26.84;54.70;101334.16;10613447;28;20137;-76
2022/08/15 15:43:44;;;;;;;7.95;5.70;;;;;;;26.84;54.93;101334.16;10614190;28;20039;-77
2022/08/15 15:48:51;;;;;;;5.97;5.00;;;;;;;26.81;56.11;101318.00;10588091;28;20055;-76
2022/08/15 15:53:55;;;;;;;5.85;5.15;;;;;;;26.80;56.01;101324.84;10593436;28;20043;-76
2022/08/15 15:58:57;;;;;;;7.60;4.95;;;;;;;26.78;55.80;101324.41;10611231;28;20055;-76
2022/08/15 16:04:00;;;;;;;5.65;4.72;;;;;;;26.71;54.37;101328.69;10612211;28;20048;-76
2022/08/15 16:09:02;;;;;;;5.32;4.82;;;;;;;26.64;53.42;101330.56;10592953;28;20050;-77
2022/08/15 16:14:14;;;;;;;5.95;4.47;;;;;;;26.60;53.02;101330.53;10604585;28;20048;-78
2022/08/15 16:19:20;;;;;;;10.25;5.47;;;;;;;26.59;55.66;101339.34;10576413;28;20065;-75
2022/08/15 16:24:30;;;;;;;6.87;5.50;;;;;;;26.46;57.30;101330.25;10604437;28;20047;-76
2022/08/15 16:29:35;;;;;;;6.50;4.93;;;;;;;26.37;57.54;101326.81;10615686;27;20450;-76
2022/08/15 16:34:47;;;;;;;6.38;5.45;;;;;;;26.30;57.98;101335.94;10591875;28;20058;-77
2022/08/15 16:39:56;;;;;;;6.22;5.18;;;;;;;26.22;57.88;101336.16;10590555;28;20035;-77
2022/08/15 16:44:59;;;;;;;6.20;5.60;;;;;;;26.17;58.38;101342.06;10608395;28;20031;-77
2022/08/15 16:50:10;;;;;;;7.90;6.20;;;;;;;26.08;59.21;101337.50;10617487;27;20047;-76
2022/08/15 16:55:28;;;;;;;6.80;5.30;;;;;;;26.01;59.79;101334.50;10602447;27;20063;-77
2022/08/15 17:00:59;;;;;;;7.00;5.53;;;;;;;25.95;59.67;101340.81;10604273;28;20047;-77
2022/08/15 17:06:07;;;;;;;7.75;5.35;;;;;;;25.81;60.17;101335.69;10607403;28;20417;-76
2022/08/15 17:11:39;;;;;;;8.48;5.80;;;;;;;25.68;60.59;101342.63;10599783;28;20046;-77
2022/08/15 17:16:51;;;;;;;7.90;5.72;;;;;;;25.55;60.85;101339.09;10539385;28;20063;-76
2022/08/15 17:22:20;;;;;;;9.70;5.72;;;;;;;25.41;61.20;101348.00;10561649;28;20524;-74
2022/08/15 17:27:42;;;;;;;8.70;5.60;;;;;;;25.29;61.77;101348.09;10560497;28;20047;-78
2022/08/15 17:32:51;;;;;;;10.80;6.30;;;;;;;25.18;62.29;101345.03;10563022;28;21298;-76
2022/08/15 17:37:54;;;;;;;5.45;4.90;;;;;;;25.07;61.67;101348.75;10562446;28;20520;-76
2022/08/15 17:43:00;;;;;;;7.32;5.30;;;;;;;24.99;61.60;101355.31;10541571;28;20043;-76
2022/08/15 17:48:26;;;;;;;7.03;6.00;;;;;;;24.90;61.85;101355.50;10541356;28;20036;-75
2022/08/15 17:53:42;;;;;;;8.35;6.05;;;;;;;24.78;62.46;101356.38;10510130;28;20036;-76
2022/08/15 17:59:05;;;;;;;8.15;5.93;;;;;;;24.70;62.43;101356.56;10562897;28;20040;-77
2022/08/15 18:04:08;;;;;;;8.52;5.80;;;;;;;24.59;61.99;101361.88;10567931;28;20040;-77
2022/08/15 18:09:20;;;;;;;7.40;5.90;;;;;;;24.48;63.18;101358.00;10550658;28;20028;-76
2022/08/15 18:14:22;;;;;;;11.43;6.47;;;;;;;24.38;63.25;101362.09;10564611;28;20054;-76
2022/08/15 18:19:26;;;;;;;8.23;6.15;;;;;;;24.31;63.54;101357.13;10610042;27;20115;-77
2022/08/15 18:24:34;;;;;;;7.82;5.15;;;;;;;24.26;63.31;101362.94;10613945;28;20050;-76
2022/08/15 18:29:37;;;;;;;8.10;6.10;;;;;;;24.24;63.69;101365.28;10616266;28;20039;-77
2022/08/15 18:34:46;;;;;;;8.32;5.90;;;;;;;24.18;64.28;101361.09;10577633;28;20062;-76
2022/08/15 18:45:24;;;;;;;5.95;4.88;;;;;;;24.11;63.71;101358.06;10580213;28;20036;-75
2022/08/15 18:50:26;;;;;;;6.47;4.90;;;;;;;24.08;64.67;101358.78;10608602;28;20409;-75
2022/08/15 18:55:37;;;;;;;8.23;5.90;;;;;;;24.06;64.05;101358.34;10591885;28;20047;-77
2022/08/15 19:00:56;;;;;;;8.05;5.90;;;;;;;24.01;64.02;101353.00;10590992;28;20054;-75
2022/08/15 19:06:09;;;;;;;8.10;4.57;;;;;;;23.96;64.07;101348.44;10570297;28;20043;-76
2022/08/15 19:11:39;;;;;;;7.55;5.47;;;;;;;23.92;65.10;101341.09;10575947;28;20066;-76
2022/08/15 19:16:53;;;;;;;8.18;6.50;;;;;;;23.86;65.08;101345.31;10588917;28;20043;-75
2022/08/15 19:21:56;;;;;;;10.93;6.07;;;;;;;23.77;65.02;101342.63;10591397;28;20047;-74
2022/08/15 19:27:35;;;;;;;7.18;6.13;;;;;;;23.69;64.42;101347.22;10608026;28;20043;-76
2022/08/15 19:33:13;;;;;;;6.07;4.95;;;;;;;23.62;65.04;101349.00;10608541;28;20039;-78
2022/08/15 19:38:32;;;;;;;9.15;6.47;;;;;;;23.53;65.40;101349.06;10603656;28;20517;-77
2022/08/15 19:44:03;;;;;;;6.63;5.55;;;;;;;23.46;65.83;101351.66;10593011;28;20121;-76
2022/08/15 19:54:59;;;;;;;6.10;5.50;;;;;;;23.35;65.77;101359.72;10599109;28;20059;-78
2022/08/15 20:00:10;;;;;;;7.72;5.68;;;;;;;23.29;66.52;101354.69;10587668;28;20051;-77
2022/08/15 20:05:24;;;;;;;7.82;5.18;;;;;;;23.25;66.36;101356.53;10606785;28;20043;-79
2022/08/15 20:11:07;;;;;;;5.97;4.63;;;;;;;23.23;65.82;101356.91;10606083;28;20035;-79
2022/08/15 20:16:16;;;;;;;7.72;6.13;;;;;;;23.21;66.43;101370.44;10588745;28;20058;-78
2022/08/15 20:21:42;;;;;;;9.70;7.35;;;;;;;23.15;67.31;101371.84;10602968;27;20042;-77
2022/08/15 20:26:55;;;;;;;13.88;7.90;;;;;;;23.04;67.18;101379.88;10574460;28;20035;-79
2022/08/15 20:32:12;;;;;;;9.65;6.90;;;;;;;22.90;67.99;101382.16;10574953;28;20409;-77
2022/08/15 20:37:20;;;;;;;11.15;7.35;;;;;;;22.79;68.57;101381.78;10593112;28;20032;-77
2022/08/15 20:42:42;;;;;;;9.50;6.90;;;;;;;22.69;68.99;101376.59;10585446;28;20051;-77
2022/08/15 20:47:59;;;;;;;8.18;6.65;;;;;;;22.63;69.13;101391.16;10583515;28;20048;-77
2022/08/15 20:53:03;;;;;;;9.95;7.28;;;;;;;22.55;68.97;101388.09;10566627;27;20048;-78
2022/08/15 20:58:18;;;;;;;10.25;7.70;;;;;;;22.47;68.83;101397.41;10598635;28;20047;-77
2022/08/15 21:03:21;;;;;;;12.50;7.57;;;;;;;22.42;69.31;101392.03;10585764;28;20035;-77
2022/08/15 21:08:39;;;;;;;15.13;8.40;;;;;;;22.36;69.75;101396.19;10584559;28;20032;-77
2022/08/15 21:14:02;;;;;;;8.95;7.57;;;;;;;22.32;70.73;101400.00;10588733;28;20039;-77
2022/08/15 21:19:14;;;;;;;15.68;8.55;;;;;;;22.24;70.65;101399.75;10578950;28;20040;-75
2022/08/15 21:24:25;;;;;;;13.35;8.68;;;;;;;22.18;70.53;101406.69;10573318;28;20040;-76
2022/08/15 21:29:30;;;;;;;15.55;8.90;;;;;;;22.14;70.97;101410.53;10573954;28;20040;-75
2022/08/15 21:34:36;;;;;;;11.13;8.20;;;;;;;22.11;70.78;101416.78;10573797;28;20065;-76
2022/08/15 21:39:41;;;;;;;10.88;7.97;;;;;;;22.09;70.66;101419.13;10534115;28;20849;-75
2022/08/15 21:45:08;;;;;;;12.98;8.80;;;;;;;22.08;71.11;101417.47;10601401;28;20031;-76
2022/08/15 21:50:10;;;;;;;10.25;8.68;;;;;;;22.04;71.20;101422.91;10583984;28;20036;-77
2022/08/15 21:55:21;;;;;;;11.65;8.40;;;;;;;22.03;70.95;101414.84;10603082;28;20047;-77
2022/08/15 22:00:42;;;;;;;15.57;8.80;;;;;;;22.05;71.05;101418.16;10584197;28;20044;-77
2022/08/15 22:05:51;;;;;;;13.50;8.88;;;;;;;22.00;71.51;101418.31;10587323;28;20039;-77
2022/08/15 22:10:57;;;;;;;13.30;8.52;;;;;;;21.96;71.18;101421.78;10594073;28;20032;-77
2022/08/15 22:15:59;;;;;;;14.55;8.95;;;;;;;21.92;71.65;101409.66;10391473;28;5154101;-77
2022/08/15 22:21:04;;;;;;;12.63;9.73;;;;;;;21.83;71.69;101416.44;10605792;28;20051;-76
2022/08/15 22:26:07;;;;;;;13.20;8.73;;;;;;;21.74;72.42;101412.91;10602191;28;20476;-76
2022/08/15 22:31:10;;;;;;;13.95;8.77;;;;;;;21.71;72.82;101420.00;10583586;28;20039;-77
2022/08/15 22:36:12;;;;;;;14.45;8.88;;;;;;;21.71;72.82;101419.19;10578188;28;20035;-76
2022/08/15 22:41:18;;;;;;;13.75;9.70;;;;;;;21.67;73.14;101430.19;10574483;28;20063;-76
2022/08/15 22:46:34;;;;;;;15.40;9.13;;;;;;;21.66;73.33;101431.34;10575486;28;20040;-76
2022/08/15 22:51:46;;;;;;;13.50;8.65;;;;;;;21.70;73.26;101429.53;10567108;28;20062;-76
2022/08/15 22:56:56;;;;;;;13.05;9.35;;;;;;;21.73;73.71;101431.66;10563335;28;20052;-76
2022/08/15 23:02:12;;;;;;;12.30;9.05;;;;;;;21.72;73.31;101432.81;10582340;28;20429;-77
2022/08/15 23:07:22;;;;;;;14.02;9.05;;;;;;;21.78;72.82;101439.81;10592944;28;20627;-78
2022/08/15 23:12:27;;;;;;;17.00;8.82;;;;;;;21.74;72.64;101436.06;10578907;28;20038;-79
2022/08/15 23:17:36;;;;;;;11.48;9.32;;;;;;;21.71;72.61;101441.53;10593148;28;20051;-78
2022/08/15 23:22:38;;;;;;;17.10;9.50;;;;;;;21.69;73.28;101450.22;10604786;28;20498;-79
2022/08/15 23:27:41;;;;;;;19.60;10.02;;;;;;;21.67;72.50;101446.94;10593759;27;20043;-78
2022/08/15 23:32:43;;;;;;;13.68;9.55;;;;;;;21.63;72.60;101448.78;10565433;28;20043;-79
2022/08/15 23:37:49;;;;;;;16.02;9.68;;;;;;;21.57;72.89;101452.94;10579549;28;20056;-79
2022/08/15 23:42:56;;;;;;;17.08;10.45;;;;;;;21.53;72.64;101443.59;10563771;28;20043;-79
2022/08/15 23:47:59;;;;;;;16.98;10.55;;;;;;;21.40;73.47;101453.00;10582165;28;20055;-78
2022/08/15 23:53:01;;;;;;;14.07;10.02;;;;;;;21.36;73.15;101448.09;10564658;28;20042;-78
2022/08/15 23:58:05;;;;;;;15.15;10.73;;;;;;;21.28;73.58;101450.91;10575973;28;20051;-78
